Time;durP1;ratioP1;P1;durP2;ratioP2;P2;SDS_P1;SDS_P2;PMS_P1;PMS_P2;Temp;Humidity;BMP_temperature;BMP_pressure;BME280_temperature;BME280_humidity;BME280_pressure;Samples;Min_cycle;Max_cycle;Signal;HPM_P1;HPM_P2
2023/01/03 00:01:39;;;;;;;2.50;1.45;;;14.80;46.80;;;;;;5093373;28;20186;-50
2023/01/03 00:04:05;;;;;;;2.50;1.65;;;14.80;46.60;;;;;;5093578;28;20192;-51
2023/01/03 00:06:37;;;;;;;1.90;1.43;;;14.80;46.60;;;;;;5091737;28;20217;-50
2023/01/03 00:09:05;;;;;;;3.70;1.50;;;14.90;46.70;;;;;;5107214;22;20314;-51
2023/01/03 00:14:23;;;;;;;3.22;2.15;;;14.70;47.00;;;;;;5093185;28;20657;-51
2023/01/03 00:16:51;;;;;;;2.65;1.58;;;14.60;46.90;;;;;;5092968;28;20662;-51
2023/01/03 00:19:18;;;;;;;3.17;1.83;;;14.60;47.00;;;;;;5092808;28;20253;-51
2023/01/03 00:21:44;;;;;;;2.28;1.30;;;14.70;46.90;;;;;;5092844;28;20199;-51
2023/01/03 00:24:10;;;;;;;2.00;1.43;;;14.70;46.90;;;;;;5092679;28;20614;-53
2023/01/03 00:26:36;;;;;;;3.38;1.27;;;14.60;47.60;;;;;;5092746;28;20164;-51
2023/01/03 00:29:03;;;;;;;1.77;1.30;;;14.60;46.80;;;;;;5092684;28;20184;-53
2023/01/03 00:31:28;;;;;;;4.28;1.65;;;14.60;46.70;;;;;;5092703;28;20273;-51
2023/01/03 00:33:54;;;;;;;2.00;1.53;;;14.50;46.50;;;;;;5092669;28;20168;-51
2023/01/03 00:36:20;;;;;;;2.90;1.67;;;14.50;46.50;;;;;;5092451;28;20687;-51
2023/01/03 00:38:45;;;;;;;8.00;1.80;;;14.40;46.30;;;;;;5092418;28;20544;-51
2023/01/03 00:41:14;;;;;;;2.70;1.40;;;14.40;46.30;;;;;;5092791;28;20175;-51
2023/01/03 00:43:41;;;;;;;1.90;1.60;;;14.40;46.10;;;;;;5092497;28;20216;-51
2023/01/03 00:46:09;;;;;;;4.00;1.25;;;14.30;46.10;;;;;;5092273;28;20251;-53
2023/01/03 00:48:35;;;;;;;2.38;1.67;;;14.30;45.90;;;;;;5092254;28;20195;-53
2023/01/03 00:51:06;;;;;;;2.20;1.38;;;14.20;45.90;;;;;;5091526;28;20281;-53
2023/01/03 00:53:32;;;;;;;2.55;1.50;;;14.20;45.90;;;;;;5092240;28;20173;-53
2023/01/03 00:56:08;;;;;;;2.03;1.77;;;14.10;46.30;;;;;;5092134;28;20680;-53
2023/01/03 00:58:34;;;;;;;2.60;1.25;;;14.10;46.60;;;;;;5092152;28;20457;-51
2023/01/03 01:01:08;;;;;;;2.50;1.50;;;14.00;46.50;;;;;;5092312;28;20172;-51
2023/01/03 01:03:35;;;;;;;1.35;1.10;;;14.00;46.70;;;;;;5092204;28;20662;-51
2023/01/03 01:06:12;;;;;;;2.22;1.10;;;14.00;46.50;;;;;;5091942;28;20183;-50
2023/01/03 01:08:38;;;;;;;2.20;1.67;;;14.00;46.40;;;;;;5092210;28;20579;-51
2023/01/03 01:11:03;;;;;;;1.77;1.20;;;14.00;46.40;;;;;;5092247;28;20270;-51
2023/01/03 01:13:31;;;;;;;3.20;1.13;;;13.90;46.50;;;;;;5092184;28;20168;-50
2023/01/03 01:16:27;;;;;;;4.05;1.35;;;13.90;46.50;;;;;;5091868;28;20167;-51
2023/01/03 01:18:54;;;;;;;1.70;1.25;;;13.80;46.30;;;;;;5090236;28;20203;-51
2023/01/03 01:21:24;;;;;;;1.95;1.15;;;13.80;46.50;;;;;;5092036;28;20565;-51
2023/01/03 01:23:50;;;;;;;5.90;1.52;;;13.80;46.40;;;;;;5092174;28;20255;-51
2023/01/03 01:26:19;;;;;;;3.65;1.42;;;13.80;46.30;;;;;;5091814;28;20164;-51
2023/01/03 01:28:45;;;;;;;2.35;1.25;;;13.80;46.20;;;;;;5073770;28;20220;-51
2023/01/03 01:31:15;;;;;;;1.60;1.20;;;13.80;46.00;;;;;;5092138;28;20179;-51
2023/01/03 01:33:41;;;;;;;1.52;0.98;;;13.80;46.10;;;;;;5092093;28;20175;-51
2023/01/03 01:36:12;;;;;;;3.30;1.73;;;13.70;46.20;;;;;;5091783;28;20635;-51
2023/01/03 01:38:38;;;;;;;2.17;1.30;;;13.60;46.20;;;;;;5091820;28;20499;-51
2023/01/03 01:41:04;;;;;;;1.37;1.00;;;13.60;46.20;;;;;;5091896;28;20177;-52
2023/01/03 01:46:22;;;;;;;3.83;1.42;;;13.70;46.10;;;;;;5091876;28;20183;-51
2023/01/03 01:48:53;;;;;;;1.70;1.20;;;13.60;46.00;;;;;;5091794;28;20192;-51
2023/01/03 01:51:21;;;;;;;2.20;1.50;;;13.60;46.00;;;;;;5091857;28;20164;-51
2023/01/03 01:53:48;;;;;;;4.40;2.05;;;13.60;46.10;;;;;;5091693;28;20176;-51
2023/01/03 01:56:19;;;;;;;2.65;1.50;;;13.50;46.20;;;;;;5091703;28;20240;-51
2023/01/03 01:58:49;;;;;;;2.15;1.70;;;13.60;46.10;;;;;;5091663;28;20662;-51
2023/01/03 02:01:18;;;;;;;2.97;2.47;;;13.60;45.90;;;;;;5091765;28;20172;-51
2023/01/03 02:03:51;;;;;;;2.70;1.83;;;13.60;45.90;;;;;;5094504;28;20176;-49
2023/01/03 02:06:17;;;;;;;2.60;1.80;;;13.60;45.70;;;;;;5095218;28;20171;-51
2023/01/03 02:08:43;;;;;;;2.45;1.20;;;13.70;45.60;;;;;;5095218;28;20214;-51
2023/01/03 02:11:27;;;;;;;2.10;1.47;;;13.70;45.30;;;;;;5095555;28;20184;-51
2023/01/03 02:14:11;;;;;;;2.45;1.20;;;13.70;45.30;;;;;;5095445;28;20538;-51
2023/01/03 02:17:20;;;;;;;2.55;1.92;;;13.60;45.30;;;;;;5095509;28;20250;-51
2023/01/03 02:20:21;;;;;;;2.45;1.58;;;13.60;45.30;;;;;;5043315;28;20168;-51
2023/01/03 02:23:16;;;;;;;1.80;1.40;;;13.60;45.20;;;;;;5090058;28;20183;-52
2023/01/03 02:26:18;;;;;;;5.28;3.45;;;13.60;45.00;;;;;;5094982;28;20179;-51
2023/01/03 02:29:05;;;;;;;4.25;3.85;;;12.50;44.40;;;;;;5076867;28;20282;-52
2023/01/03 02:31:55;;;;;;;2.90;2.30;;;13.60;44.90;;;;;;5094952;28;20195;-51
2023/01/03 02:34:47;;;;;;;2.80;2.40;;;13.60;44.90;;;;;;5094951;28;20465;-51
2023/01/03 02:37:18;;;;;;;2.72;2.20;;;13.60;44.70;;;;;;5094878;28;20272;-51
2023/01/03 02:40:00;;;;;;;3.95;1.80;;;13.60;44.60;;;;;;5094825;28;20164;-51
2023/01/03 02:42:57;;;;;;;3.20;2.60;;;13.60;44.40;;;;;;5094870;28;20194;-52
2023/01/03 02:45:41;;;;;;;2.50;2.30;;;13.50;44.50;;;;;;5094594;28;20611;-52
2023/01/03 02:48:35;;;;;;;3.40;2.03;;;13.50;44.60;;;;;;5095051;28;20288;-52
2023/01/03 02:51:07;;;;;;;4.13;2.25;;;13.50;44.70;;;;;;5094703;28;20555;-52
2023/01/03 02:53:41;;;;;;;2.28;1.77;;;13.50;44.70;;;;;;5094620;28;20168;-51
2023/01/03 02:56:11;;;;;;;2.80;1.92;;;13.50;44.60;;;;;;5094282;28;20640;-51
2023/01/03 02:58:39;;;;;;;3.35;1.73;;;13.50;44.40;;;;;;5094584;28;20273;-51
2023/01/03 03:01:09;;;;;;;1.88;1.55;;;13.50;44.40;;;;;;5094389;28;20168;-51
2023/01/03 03:03:40;;;;;;;2.90;2.20;;;13.50;44.20;;;;;;5094383;28;20195;-51
2023/01/03 03:06:13;;;;;;;5.03;4.53;;;13.50;44.20;;;;;;5094177;28;20160;-51
2023/01/03 03:08:39;;;;;;;6.45;5.85;;;13.50;44.20;;;;;;5094068;28;20204;-52
2023/01/03 03:14:12;;;;;;;6.82;5.43;;;13.50;44.00;;;;;;5093458;28;20456;-52
2023/01/03 03:16:48;;;;;;;6.60;4.93;;;13.50;43.90;;;;;;5094009;28;20171;-51
2023/01/03 03:25:09;;;;;;;2.65;1.75;;;13.60;43.70;;;;;;5094166;28;20237;-52
2023/01/03 03:30:26;;;;;;;3.65;1.80;;;13.70;43.70;;;;;;5094122;28;20191;-51
2023/01/03 03:32:56;;;;;;;2.30;1.63;;;13.70;43.70;;;;;;5093797;28;20172;-51
2023/01/03 03:35:24;;;;;;;2.33;1.73;;;13.70;43.70;;;;;;5093544;28;20168;-52
2023/01/03 03:37:54;;;;;;;2.05;1.45;;;13.70;43.70;;;;;;5093435;28;20246;-50
2023/01/03 03:46:20;;;;;;;5.43;3.80;;;13.60;43.50;;;;;;5093598;28;20171;-52
2023/01/03 03:51:39;;;;;;;9.23;5.00;;;13.60;43.50;;;;;;5093503;28;20595;-51
2023/01/03 03:54:10;;;;;;;4.30;2.83;;;13.60;43.50;;;;;;5093364;28;20176;-51
2023/01/03 03:56:37;;;;;;;9.00;3.33;;;13.60;43.40;;;;;;5093123;28;20254;-52
2023/01/03 03:59:08;;;;;;;4.30;3.45;;;13.60;43.40;;;;;;5093401;28;20191;-51
2023/01/03 04:01:36;;;;;;;3.05;1.70;;;13.60;43.40;;;;;;5093377;28;20168;-51
2023/01/03 04:04:07;;;;;;;4.32;2.35;;;13.60;43.30;;;;;;5093172;28;20168;-51
2023/01/03 04:06:46;;;;;;;3.90;2.15;;;13.60;43.20;;;;;;5093053;28;20221;-51
2023/01/03 04:09:12;;;;;;;4.45;3.53;;;13.60;43.10;;;;;;5092864;28;20250;-51
2023/01/03 04:11:38;;;;;;;7.47;3.90;;;13.60;43.00;;;;;;5093031;28;20167;-51
2023/01/03 04:14:04;;;;;;;2.67;1.97;;;13.60;43.10;;;;;;5093030;28;20168;-51
2023/01/03 04:16:30;;;;;;;2.60;2.00;;;13.60;43.00;;;;;;5092761;28;20168;-51
2023/01/03 04:18:55;;;;;;;7.53;4.00;;;13.60;43.00;;;;;;5093247;28;20200;-51
2023/01/03 04:21:21;;;;;;;4.27;2.70;;;13.50;42.90;;;;;;5092906;28;20213;-51
2023/01/03 04:23:47;;;;;;;5.33;4.03;;;13.50;42.80;;;;;;5092785;28;20405;-51
2023/01/03 04:26:13;;;;;;;8.73;4.55;;;13.50;42.70;;;;;;5092644;28;20758;-51
2023/01/03 04:28:39;;;;;;;4.40;3.40;;;13.40;42.90;;;;;;5092599;28;20188;-51
2023/01/03 04:31:05;;;;;;;5.20;2.17;;;13.40;42.90;;;;;;5092713;28;20463;-51
2023/01/03 04:33:30;;;;;;;7.77;4.30;;;13.40;42.80;;;;;;5092655;28;20635;-51
2023/01/03 04:35:56;;;;;;;8.10;5.00;;;13.40;42.70;;;;;;5092480;28;20251;-52
2023/01/03 04:38:22;;;;;;;4.00;2.90;;;13.40;42.70;;;;;;5092417;28;20206;-51
2023/01/03 04:40:48;;;;;;;4.27;3.57;;;13.30;42.20;;;;;;5092559;28;20409;-51
2023/01/03 04:45:57;;;;;;;6.90;2.53;;;13.40;42.30;;;;;;5092558;28;20266;-51
2023/01/03 04:48:23;;;;;;;5.40;2.90;;;13.30;42.40;;;;;;5092345;28;20289;-52
2023/01/03 04:50:53;;;;;;;3.93;2.53;;;13.20;42.30;;;;;;5092378;28;20168;-51
2023/01/03 04:53:21;;;;;;;2.78;2.50;;;13.30;42.40;;;;;;5092327;28;20398;-51
2023/01/03 04:55:49;;;;;;;4.32;2.55;;;13.20;42.30;;;;;;5092367;28;20203;-51
2023/01/03 04:58:16;;;;;;;3.92;2.33;;;13.30;42.50;;;;;;5092478;28;20611;-51
2023/01/03 05:00:42;;;;;;;3.80;2.13;;;13.30;42.60;;;;;;5092335;28;20555;-51
2023/01/03 05:03:07;;;;;;;5.53;3.30;;;13.30;42.50;;;;;;5092219;28;20163;-52
2023/01/03 05:05:35;;;;;;;2.87;2.37;;;13.30;42.50;;;;;;5092293;28;20405;-51
2023/01/03 05:08:06;;;;;;;2.35;1.70;;;13.20;42.30;;;;;;5092315;28;20211;-51
2023/01/03 05:10:32;;;;;;;4.22;2.10;;;13.30;42.60;;;;;;5092238;28;20263;-52
2023/01/03 05:12:59;;;;;;;3.67;1.98;;;13.30;42.50;;;;;;5092065;28;20172;-52
2023/01/03 05:15:29;;;;;;;2.20;1.30;;;13.30;42.40;;;;;;5091863;28;20176;-51
2023/01/03 05:17:56;;;;;;;4.05;1.83;;;13.30;42.30;;;;;;5091847;28;20206;-52
2023/01/03 05:26:04;;;;;;;5.50;1.63;;;13.50;42.10;;;;;;5091917;28;20171;-52
2023/01/03 05:28:30;;;;;;;7.60;2.05;;;13.50;42.10;;;;;;5092432;28;20184;-51
2023/01/03 05:30:57;;;;;;;3.37;2.40;;;13.50;42.10;;;;;;5091944;28;20172;-52
2023/01/03 05:33:23;;;;;;;2.42;1.73;;;13.60;42.00;;;;;;5092041;28;20410;-51
2023/01/03 05:35:49;;;;;;;3.35;1.83;;;13.50;41.90;;;;;;5091667;28;20206;-52
2023/01/03 05:38:15;;;;;;;3.30;1.70;;;13.50;42.10;;;;;;5093920;28;20237;-51
2023/01/03 05:40:42;;;;;;;3.28;1.90;;;13.60;42.10;;;;;;5077561;28;20414;-51
2023/01/03 05:43:07;;;;;;;5.00;1.70;;;13.60;42.00;;;;;;5096331;28;20183;-52
2023/01/03 05:45:37;;;;;;;3.80;1.60;;;13.60;42.00;;;;;;5095725;28;20530;-51
2023/01/03 05:48:04;;;;;;;2.90;1.90;;;13.60;41.90;;;;;;5095727;28;20191;-51
2023/01/03 05:50:30;;;;;;;2.63;1.48;;;13.60;41.70;;;;;;5095722;28;20222;-52
2023/01/03 05:52:56;;;;;;;2.33;2.13;;;13.60;41.70;;;;;;5095764;28;20643;-51
2023/01/03 05:55:22;;;;;;;2.80;1.60;;;13.60;41.70;;;;;;5095331;28;20482;-52
2023/01/03 05:57:47;;;;;;;1.80;1.27;;;13.60;41.80;;;;;;5095431;28;20582;-50
2023/01/03 06:00:14;;;;;;;4.57;1.93;;;13.60;41.90;;;;;;5095519;28;20639;-52
2023/01/03 06:02:40;;;;;;;3.70;1.52;;;13.50;41.90;;;;;;5095456;28;20172;-51
2023/01/03 06:05:07;;;;;;;2.63;2.10;;;13.50;42.60;;;;;;5095325;28;20632;-51
2023/01/03 06:07:35;;;;;;;2.70;2.00;;;13.50;42.00;;;;;;5095206;28;20233;-51
2023/01/03 06:10:01;;;;;;;2.30;1.95;;;13.50;42.10;;;;;;5095308;28;20184;-51
2023/01/03 06:12:27;;;;;;;3.50;1.60;;;13.50;42.10;;;;;;5095281;28;20175;-51
2023/01/03 06:14:53;;;;;;;3.10;1.85;;;13.50;42.10;;;;;;5095145;28;20168;-52
2023/01/03 06:20:03;;;;;;;2.33;1.58;;;13.40;42.10;;;;;;5095480;28;20226;-51
2023/01/03 06:22:29;;;;;;;5.20;2.47;;;13.40;42.10;;;;;;5095068;28;20200;-52
2023/01/03 06:24:55;;;;;;;3.20;2.07;;;13.40;42.10;;;;;;5094878;28;20678;-52
2023/01/03 06:27:20;;;;;;;2.17;1.40;;;13.40;42.10;;;;;;5095322;28;20221;-51
2023/01/03 06:29:46;;;;;;;3.00;1.83;;;13.30;42.20;;;;;;5095101;28;20591;-52
2023/01/03 06:32:12;;;;;;;3.80;2.43;;;13.30;42.10;;;;;;5095080;28;20589;-51
2023/01/03 06:34:37;;;;;;;3.00;2.27;;;13.30;42.30;;;;;;5094762;28;20168;-51
2023/01/03 06:37:03;;;;;;;4.97;2.47;;;13.20;42.20;;;;;;5094652;28;20244;-52
2023/01/03 06:39:29;;;;;;;3.83;1.77;;;13.20;42.20;;;;;;5094748;28;20237;-51
2023/01/03 06:41:55;;;;;;;3.20;2.13;;;13.20;42.30;;;;;;5094838;28;20195;-52
2023/01/03 06:44:20;;;;;;;4.97;2.30;;;13.20;43.20;;;;;;5094761;28;20175;-52
2023/01/03 06:55:15;;;;;;;2.88;2.50;;;13.20;42.60;;;;;;5087507;28;20218;-52
2023/01/03 06:57:41;;;;;;;3.20;2.53;;;13.20;42.70;;;;;;5094367;28;20235;-51
2023/01/03 07:00:07;;;;;;;4.50;2.67;;;13.10;42.80;;;;;;5094393;28;20580;-51
2023/01/03 07:02:33;;;;;;;4.78;2.90;;;13.10;43.00;;;;;;5094331;28;20640;-51
2023/01/03 07:04:59;;;;;;;5.73;3.10;;;13.10;43.00;;;;;;5094121;28;20214;-52
2023/01/03 07:07:24;;;;;;;5.23;2.57;;;13.10;43.10;;;;;;5094214;28;20267;-51
2023/01/03 07:09:50;;;;;;;5.97;3.27;;;13.10;43.00;;;;;;5094225;28;20176;-51
2023/01/03 07:15:04;;;;;;;5.70;2.90;;;13.10;42.90;;;;;;5094003;28;20539;-52
2023/01/03 07:17:30;;;;;;;4.40;2.83;;;13.10;43.10;;;;;;5093928;28;20217;-51
2023/01/03 07:19:55;;;;;;;4.43;2.40;;;13.00;43.00;;;;;;5094074;28;20166;-51
2023/01/03 07:22:21;;;;;;;3.10;2.10;;;13.00;43.10;;;;;;5094007;28;20187;-51
2023/01/03 07:24:47;;;;;;;3.80;2.50;;;12.90;43.10;;;;;;5093649;28;20199;-52
2023/01/03 07:27:13;;;;;;;5.70;3.03;;;13.00;43.00;;;;;;5094471;28;20291;-52
2023/01/03 07:29:38;;;;;;;4.63;2.77;;;13.00;43.00;;;;;;5093895;28;20199;-52
2023/01/03 07:32:04;;;;;;;6.10;3.40;;;12.90;43.20;;;;;;5093809;28;20410;-52
2023/01/03 07:34:30;;;;;;;7.07;4.10;;;12.90;43.10;;;;;;5107376;22;20223;-51
2023/01/03 07:36:55;;;;;;;5.63;4.10;;;12.90;43.00;;;;;;5093543;28;20421;-51
2023/01/03 07:39:21;;;;;;;6.60;4.33;;;12.90;42.90;;;;;;5093656;28;20266;-51
2023/01/03 07:44:31;;;;;;;9.82;5.65;;;12.80;42.80;;;;;;5093370;28;20618;-51
2023/01/03 07:46:57;;;;;;;12.93;7.70;;;12.70;42.80;;;;;;5093587;28;20184;-51
2023/01/03 07:49:23;;;;;;;15.60;7.20;;;12.70;42.80;;;;;;5093445;28;20175;-51
2023/01/03 07:51:48;;;;;;;10.60;7.20;;;12.70;42.70;;;;;;5093477;28;20645;-51
2023/01/03 07:54:14;;;;;;;10.10;6.50;;;12.70;42.80;;;;;;5093183;28;20187;-50
2023/01/03 07:56:40;;;;;;;12.43;7.60;;;12.70;42.90;;;;;;5093295;28;20171;-51
2023/01/03 07:59:05;;;;;;;9.93;6.17;;;12.70;43.00;;;;;;5093325;28;20768;-50
2023/01/03 08:01:32;;;;;;;7.80;4.63;;;12.80;43.10;;;;;;5092887;28;20190;-50
2023/01/03 08:03:58;;;;;;;10.75;5.53;;;13.00;43.00;;;;;;5093022;28;20188;-50
2023/01/03 08:06:24;;;;;;;8.30;6.60;;;13.30;43.00;;;;;;5092973;28;20164;-48
2023/01/03 08:14:20;;;;;;;7.88;5.75;;;13.50;41.80;;;;;;5093334;28;20199;-48
2023/01/03 08:16:45;;;;;;;4.90;3.15;;;13.60;41.70;;;;;;5092833;28;20179;-48
2023/01/03 08:19:11;;;;;;;6.83;4.83;;;13.50;41.50;;;;;;5092966;28;20225;-48
2023/01/03 08:21:37;;;;;;;4.03;2.73;;;13.50;41.60;;;;;;5092916;28;20700;-48
2023/01/03 08:24:03;;;;;;;5.32;3.13;;;13.40;41.20;;;;;;5093047;28;20183;-49
2023/01/03 08:26:29;;;;;;;3.80;3.10;;;13.30;41.40;;;;;;5092736;28;20201;-48
2023/01/03 08:28:54;;;;;;;4.10;3.50;;;13.30;41.70;;;;;;5092773;28;20172;-48
2023/01/03 08:31:22;;;;;;;4.43;3.10;;;13.50;42.00;;;;;;5092720;28;20535;-48
2023/01/03 08:33:53;;;;;;;3.90;3.05;;;13.80;41.70;;;;;;5092432;28;20245;-48
2023/01/03 08:36:21;;;;;;;5.35;3.20;;;14.10;40.90;;;;;;5092533;28;20665;-48
2023/01/03 08:39:08;;;;;;;4.18;3.25;;;14.30;40.30;;;;;;5092520;28;20227;-48
2023/01/03 08:41:40;;;;;;;3.30;2.55;;;14.50;39.70;;;;;;5092471;28;20218;-48
2023/01/03 08:44:08;;;;;;;3.25;2.22;;;14.90;39.30;;;;;;5092499;28;20237;-48
2023/01/03 08:46:35;;;;;;;4.97;3.70;;;15.30;38.80;;;;;;5092263;28;20213;-48
2023/01/03 08:49:01;;;;;;;4.72;3.03;;;15.50;38.40;;;;;;5092448;28;20536;-48
2023/01/03 08:51:28;;;;;;;4.40;2.90;;;15.70;38.40;;;;;;5092441;28;20175;-48
2023/01/03 08:53:54;;;;;;;5.63;3.03;;;15.80;38.00;;;;;;5092273;28;20241;-49
2023/01/03 08:56:20;;;;;;;3.60;3.03;;;16.00;37.10;;;;;;5092201;28;20628;-49
2023/01/03 08:58:46;;;;;;;5.50;2.87;;;16.10;36.40;;;;;;5092390;28;20191;-48
2023/01/03 09:01:12;;;;;;;2.80;2.27;;;16.30;36.90;;;;;;5092504;28;20434;-49
2023/01/03 09:03:37;;;;;;;6.47;3.63;;;16.30;35.40;;;;;;5092169;28;20237;-48
2023/01/03 09:06:04;;;;;;;4.27;3.30;;;16.10;35.80;;;;;;5092020;28;20393;-49
2023/01/03 09:08:31;;;;;;;4.88;3.50;;;16.10;35.30;;;;;;5092116;28;20203;-48
2023/01/03 09:10:57;;;;;;;9.02;2.95;;;16.10;35.80;;;;;;5092127;28;20172;-49
2023/01/03 09:13:23;;;;;;;3.92;2.80;;;16.20;35.80;;;;;;5091298;28;20191;-48
2023/01/03 09:15:49;;;;;;;4.20;2.40;;;16.30;36.00;;;;;;5091888;28;20225;-49
2023/01/03 09:18:15;;;;;;;3.88;2.42;;;16.40;35.50;;;;;;5091922;28;20517;-48
2023/01/03 09:20:41;;;;;;;3.43;2.47;;;16.40;35.70;;;;;;5092038;28;20635;-49
2023/01/03 09:23:06;;;;;;;4.00;2.05;;;15.10;34.50;;;;;;5091953;28;20460;-49
2023/01/03 09:25:32;;;;;;;2.67;2.20;;;16.30;35.30;;;;;;5091881;28;20168;-48
2023/01/03 09:27:58;;;;;;;3.13;2.63;;;16.20;35.40;;;;;;5092013;28;20534;-48
2023/01/03 09:30:24;;;;;;;2.43;1.67;;;16.10;35.50;;;;;;5092041;28;20436;-49
2023/01/03 09:32:50;;;;;;;3.53;2.87;;;16.00;35.20;;;;;;5091783;28;20178;-48
2023/01/03 09:35:16;;;;;;;5.18;3.40;;;16.00;35.60;;;;;;5092105;28;20573;-48
2023/01/03 09:37:42;;;;;;;5.78;3.95;;;16.00;36.00;;;;;;5091780;28;20192;-49
2023/01/03 09:40:08;;;;;;;3.30;3.00;;;16.00;35.60;;;;;;5091727;28;20172;-48
2023/01/03 09:45:27;;;;;;;3.60;2.78;;;16.10;35.80;;;;;;5091654;28;20183;-48
2023/01/03 09:47:53;;;;;;;4.55;2.78;;;16.30;34.70;;;;;;5091859;28;20176;-49
2023/01/03 09:50:22;;;;;;;3.20;2.30;;;16.60;34.50;;;;;;5091710;28;20629;-48
2023/01/03 10:04:29;;;;;;;5.93;3.47;;;16.40;33.70;;;;;;5091646;28;20414;-49
2023/01/03 10:07:12;;;;;;;3.08;2.78;;;16.30;33.90;;;;;;5053140;28;20271;-49
2023/01/03 10:10:02;;;;;;;3.67;2.97;;;16.40;33.60;;;;;;5091736;28;20172;-48
2023/01/03 10:12:38;;;;;;;2.75;2.20;;;16.90;33.90;;;;;;5091650;28;20186;-48
2023/01/03 10:15:34;;;;;;;5.63;2.85;;;17.60;33.00;;;;;;5091399;28;20164;-49
2023/01/03 10:18:18;;;;;;;2.65;2.45;;;18.10;31.00;;;;;;5091479;28;20227;-49
2023/01/03 10:20:49;;;;;;;3.28;2.25;;;18.50;30.20;;;;;;5091400;28;20500;-49
2023/01/03 10:23:15;;;;;;;3.30;2.55;;;18.70;29.20;;;;;;5091864;28;20209;-49
2023/01/03 10:25:44;;;;;;;4.38;3.08;;;18.70;30.00;;;;;;5094847;28;20172;-49
2023/01/03 10:28:25;;;;;;;2.80;2.50;;;18.90;30.20;;;;;;5095081;28;20176;-49
2023/01/03 10:31:09;;;;;;;4.50;2.28;;;19.50;28.80;;;;;;5095228;28;20171;-49
2023/01/03 10:33:44;;;;;;;4.72;2.22;;;19.80;28.70;;;;;;5094896;28;20206;-49
2023/01/03 10:36:11;;;;;;;2.60;2.05;;;19.80;27.10;;;;;;5094676;28;20646;-49
2023/01/03 10:38:38;;;;;;;4.97;2.78;;;19.70;27.80;;;;;;5094819;28;20638;-49
2023/01/03 10:41:13;;;;;;;3.58;2.50;;;19.90;27.50;;;;;;5094864;28;20203;-49
2023/01/03 10:43:55;;;;;;;2.55;2.33;;;20.20;27.20;;;;;;5094771;28;20180;-49
2023/01/03 10:46:21;;;;;;;3.75;2.10;;;20.40;26.00;;;;;;5094605;28;20548;-49
2023/01/03 10:48:49;;;;;;;4.45;2.83;;;20.70;26.10;;;;;;5094581;28;20172;-49
2023/01/03 10:51:30;;;;;;;3.13;2.42;;;21.20;25.20;;;;;;5094755;28;20651;-49
2023/01/03 10:53:58;;;;;;;6.75;4.45;;;21.40;23.50;;;;;;5094516;28;20196;-49
2023/01/03 10:56:25;;;;;;;4.90;2.55;;;20.60;24.80;;;;;;5094336;28;20175;-49
2023/01/03 10:59:21;;;;;;;2.45;2.08;;;19.60;25.70;;;;;;5094442;28;20209;-49
2023/01/03 11:02:13;;;;;;;3.15;1.83;;;18.60;26.20;;;;;;5093081;28;20201;-49
2023/01/03 11:04:40;;;;;;;2.45;2.00;;;18.10;28.10;;;;;;5094164;28;20175;-49
2023/01/03 11:07:10;;;;;;;3.53;1.45;;;18.20;29.40;;;;;;5094340;28;20658;-49
2023/01/03 11:09:54;;;;;;;3.35;1.80;;;18.70;29.80;;;;;;5094699;28;20254;-49
2023/01/03 11:12:36;;;;;;;6.68;2.40;;;19.10;28.50;;;;;;5094517;28;20167;-49
2023/01/03 11:15:14;;;;;;;2.95;1.70;;;19.20;28.00;;;;;;5094016;28;20647;-49
2023/01/03 11:17:57;;;;;;;3.35;2.28;;;19.00;27.20;;;;;;5093989;28;20681;-49
2023/01/03 11:20:55;;;;;;;2.47;1.77;;;18.50;27.10;;;;;;5094146;28;20172;-49
2023/01/03 11:23:41;;;;;;;5.45;2.30;;;18.00;27.90;;;;;;5079454;28;20208;-49
2023/01/03 11:26:35;;;;;;;3.15;1.70;;;17.50;28.80;;;;;;5093687;28;20164;-49
2023/01/03 11:29:32;;;;;;;3.17;2.20;;;17.20;29.10;;;;;;5093956;28;20179;-49
2023/01/03 11:32:24;;;;;;;4.63;2.30;;;17.00;29.70;;;;;;5093915;28;20172;-49
2023/01/03 11:35:21;;;;;;;7.57;2.40;;;16.90;30.60;;;;;;5093101;28;20644;-49
2023/01/03 11:38:08;;;;;;;3.08;1.83;;;17.10;31.10;;;;;;5093928;28;20192;-49
2023/01/03 11:40:45;;;;;;;3.90;2.30;;;17.20;31.10;;;;;;5093644;28;20171;-49
2023/01/03 11:43:26;;;;;;;3.40;2.13;;;17.20;30.30;;;;;;5093670;28;20233;-49
2023/01/03 11:45:54;;;;;;;2.35;2.15;;;17.00;29.90;;;;;;5093467;28;20168;-49
2023/01/03 11:48:45;;;;;;;4.40;1.85;;;16.80;30.80;;;;;;5093430;28;20210;-49
2023/01/03 11:52:00;;;;;;;2.65;1.30;;;16.60;30.50;;;;;;5093430;28;20168;-49
2023/01/03 11:55:23;;;;;;;6.30;1.58;;;16.30;31.10;;;;;;5093216;28;20200;-49
2023/01/03 11:58:07;;;;;;;2.00;1.40;;;16.10;31.40;;;;;;5011177;28;20257;-49
2023/01/03 12:00:42;;;;;;;3.45;1.60;;;16.00;31.80;;;;;;5011108;28;20174;-49
2023/01/03 12:03:10;;;;;;;1.80;1.40;;;16.10;31.70;;;;;;5011106;28;20260;-49
2023/01/03 12:05:43;;;;;;;1.95;1.50;;;16.50;32.00;;;;;;5010839;28;20999;-49
2023/01/03 12:08:32;;;;;;;3.67;1.60;;;16.60;31.30;;;;;;5011068;28;20175;-49
2023/01/03 12:11:50;;;;;;;2.78;1.80;;;16.80;31.60;;;;;;5011024;28;20249;-49
2023/01/03 12:14:21;;;;;;;1.90;1.63;;;17.10;31.50;;;;;;4949394;28;20237;-49
2023/01/03 12:16:56;;;;;;;3.40;1.77;;;17.40;31.50;;;;;;5010799;28;20194;-49
2023/01/03 12:19:29;;;;;;;3.03;1.67;;;17.90;30.70;;;;;;5011004;28;20185;-49
2023/01/03 12:22:20;;;;;;;2.58;1.23;;;18.10;27.80;;;;;;5010815;28;20728;-49
2023/01/03 12:24:53;;;;;;;3.70;1.60;;;18.30;29.50;;;;;;5009944;28;20555;-49
2023/01/03 12:27:29;;;;;;;2.22;1.77;;;18.70;29.40;;;;;;5010715;28;20175;-49
2023/01/03 12:30:13;;;;;;;3.47;2.15;;;19.20;28.00;;;;;;5092809;28;20255;-49
2023/01/03 12:32:49;;;;;;;2.85;1.40;;;19.40;27.00;;;;;;5092726;28;20221;-49
2023/01/03 12:35:58;;;;;;;3.65;1.73;;;20.20;27.20;;;;;;5092520;28;20199;-49
2023/01/03 12:38:29;;;;;;;2.50;1.20;;;21.20;26.00;;;;;;5010313;28;20281;-49
2023/01/03 12:41:06;;;;;;;2.70;1.50;;;21.60;24.50;;;;;;5079526;28;20176;-50
2023/01/03 12:43:45;;;;;;;2.65;1.30;;;21.20;24.10;;;;;;5092461;28;20187;-50
2023/01/03 12:46:20;;;;;;;2.40;1.90;;;21.30;25.60;;;;;;5092310;28;20172;-50
2023/01/03 12:48:59;;;;;;;2.53;1.70;;;22.40;24.60;;;;;;5092630;28;20171;-50
2023/01/03 12:51:26;;;;;;;1.73;1.30;;;23.10;22.50;;;;;;5092515;28;20650;-49
2023/01/03 12:54:15;;;;;;;2.38;1.50;;;24.00;21.00;;;;;;5092350;28;20195;-50
2023/01/03 12:56:55;;;;;;;1.83;1.33;;;24.80;20.50;;;;;;5092386;28;20194;-50
2023/01/03 13:00:00;;;;;;;3.30;1.37;;;25.50;20.00;;;;;;5092356;28;20416;-50
2023/01/03 13:02:31;;;;;;;1.70;1.57;;;26.10;20.30;;;;;;5092221;28;20401;-50
2023/01/03 13:05:09;;;;;;;2.00;1.67;;;25.10;19.50;;;;;;5091998;28;20425;-50
2023/01/03 13:07:36;;;;;;;3.73;1.23;;;25.00;20.10;;;;;;5092150;28;20394;-50
2023/01/03 13:10:12;;;;;;;2.00;1.57;;;23.90;20.30;;;;;;5092224;28;20406;-49
2023/01/03 13:12:42;;;;;;;1.97;1.20;;;22.40;21.50;;;;;;5091978;28;20398;-49
2023/01/03 13:15:31;;;;;;;2.37;1.33;;;21.10;22.90;;;;;;5073739;28;20421;-49
2023/01/03 13:18:15;;;;;;;2.78;1.83;;;20.10;24.40;;;;;;5092048;28;20457;-49
2023/01/03 13:20:41;;;;;;;2.67;1.98;;;19.50;26.10;;;;;;5092115;28;20167;-49
2023/01/03 13:23:54;;;;;;;4.13;1.77;;;19.20;26.70;;;;;;5091965;28;20188;-49
2023/01/03 13:26:23;;;;;;;2.20;2.00;;;19.10;27.10;;;;;;5091897;28;20179;-50
2023/01/03 13:28:50;;;;;;;2.90;1.80;;;19.10;27.70;;;;;;5092095;28;20719;-49
2023/01/03 13:31:15;;;;;;;2.10;1.70;;;19.20;27.70;;;;;;5091806;28;20206;-49
2023/01/03 13:34:14;;;;;;;2.80;1.80;;;19.30;27.40;;;;;;5091781;28;20200;-49
2023/01/03 13:37:05;;;;;;;2.08;1.40;;;19.60;25.80;;;;;;5057852;28;20207;-49
2023/01/03 13:39:49;;;;;;;1.50;1.17;;;19.80;26.50;;;;;;5091655;28;20198;-50
2023/01/03 13:42:41;;;;;;;2.53;1.67;;;20.20;25.80;;;;;;5091779;28;20304;-50
2023/01/03 13:45:10;;;;;;;1.80;1.30;;;20.50;25.50;;;;;;5088000;28;20183;-50
2023/01/03 13:47:48;;;;;;;1.92;1.13;;;20.30;25.50;;;;;;5091813;28;20164;-49
2023/01/03 13:50:33;;;;;;;3.90;1.30;;;19.90;25.30;;;;;;5091717;28;20175;-49
2023/01/03 13:53:08;;;;;;;2.08;1.30;;;19.40;26.20;;;;;;5091686;28;20207;-49
2023/01/03 13:55:39;;;;;;;1.88;1.20;;;19.00;27.00;;;;;;5091608;28;20178;-49
2023/01/03 13:58:42;;;;;;;5.32;1.48;;;18.50;27.20;;;;;;5091799;28;20232;-49
2023/01/03 14:01:35;;;;;;;2.65;1.50;;;18.00;27.80;;;;;;5053310;28;20188;-49
2023/01/03 14:04:25;;;;;;;3.97;1.92;;;17.50;28.70;;;;;;5095502;28;20184;-49
2023/01/03 14:07:09;;;;;;;2.17;1.50;;;17.30;29.20;;;;;;5095475;28;20178;-49
2023/01/03 14:10:13;;;;;;;3.08;1.40;;;16.90;29.80;;;;;;5095480;28;20164;-49
2023/01/03 14:13:03;;;;;;;4.18;2.08;;;16.60;30.00;;;;;;5022636;28;20662;-49
2023/01/03 14:15:31;;;;;;;2.17;1.45;;;16.30;30.40;;;;;;5095132;28;20184;-49
2023/01/03 14:18:06;;;;;;;2.35;1.30;;;16.00;30.90;;;;;;5095422;28;20671;-49
2023/01/03 14:20:35;;;;;;;3.28;1.55;;;15.80;31.10;;;;;;5095367;28;20172;-50
2023/01/03 14:23:07;;;;;;;3.92;1.90;;;15.60;31.40;;;;;;5095054;28;20199;-49
2023/01/03 14:25:38;;;;;;;3.35;1.40;;;15.40;31.60;;;;;;5094991;28;20156;-49